Time;durP1;ratioP1;P1;durP2;ratioP2;P2;SDS_P1;SDS_P2;PMS_P1;PMS_P2;Temp;Humidity;BMP_temperature;BMP_pressure;BME280_temperature;BME280_humidity;BME280_pressure;Samples;Min_cycle;Max_cycle;Signal;HPM_P1;HPM_P2
2023/10/12 00:02:15;;;;;;;13.32;7.85;;;18.90;88.70;;;;;;5072692;28;20029;-78
2023/10/12 00:04:43;;;;;;;14.80;7.28;;;19.00;89.10;;;;;;5072400;28;20025;-77
2023/10/12 00:07:15;;;;;;;15.63;8.25;;;19.00;89.50;;;;;;5055647;28;20037;-77
2023/10/12 00:10:00;;;;;;;17.10;7.93;;;18.90;89.70;;;;;;5039899;28;20027;-78
2023/10/12 00:12:26;;;;;;;15.82;7.93;;;19.00;90.00;;;;;;5072441;28;20031;-77
2023/10/12 00:14:55;;;;;;;20.30;8.05;;;18.90;89.80;;;;;;5055635;28;20053;-77
2023/10/12 00:17:23;;;;;;;16.35;8.18;;;19.00;89.80;;;;;;5055354;28;20045;-77
2023/10/12 00:19:51;;;;;;;18.80;8.52;;;19.00;90.00;;;;;;5055489;28;20104;-77
2023/10/12 00:22:16;;;;;;;17.35;7.65;;;19.00;90.00;;;;;;5072243;28;20093;-77
2023/10/12 00:24:43;;;;;;;18.63;8.95;;;19.00;90.20;;;;;;5072173;28;20036;-78
2023/10/12 00:27:09;;;;;;;21.38;8.68;;;19.00;90.40;;;;;;5072201;28;20022;-77
2023/10/12 00:29:39;;;;;;;16.88;9.18;;;18.90;90.50;;;;;;5055507;28;20021;-78
2023/10/12 00:32:06;;;;;;;19.83;9.32;;;18.90;90.70;;;;;;5073057;28;20084;-78
2023/10/12 00:34:38;;;;;;;19.27;9.57;;;18.90;91.10;;;;;;5055366;28;20037;-77
2023/10/12 00:37:06;;;;;;;20.07;9.67;;;18.80;91.20;;;;;;5073231;28;20032;-78
2023/10/12 00:40:25;;;;;;;20.40;9.75;;;18.80;91.40;;;;;;5073134;28;20032;-77
2023/10/12 00:42:24;;;;;;;17.33;9.55;;;18.80;91.60;;;;;;5058804;28;20025;-77
2023/10/12 00:44:53;;;;;;;17.85;9.68;;;18.70;91.80;;;;;;5055090;28;20056;-78
2023/10/12 00:50:11;;;;;;;16.75;10.20;;;18.70;92.30;;;;;;5072405;28;20043;-77
2023/10/12 00:52:57;;;;;;;21.63;9.63;;;18.60;92.40;;;;;;5072983;28;20048;-77
2023/10/12 00:55:35;;;;;;;22.55;10.18;;;18.60;92.50;;;;;;5055431;28;20029;-77
2023/10/12 00:58:05;;;;;;;21.13;10.48;;;18.60;92.90;;;;;;5072866;28;20050;-77
2023/10/12 01:00:35;;;;;;;23.23;11.02;;;18.60;92.90;;;;;;5055478;28;20032;-77
2023/10/12 01:03:07;;;;;;;17.85;9.65;;;18.60;93.00;;;;;;5055231;28;20025;-77
2023/10/12 01:05:36;;;;;;;23.70;10.93;;;18.60;93.30;;;;;;5055087;28;20029;-77
2023/10/12 01:08:05;;;;;;;20.55;11.75;;;18.50;93.50;;;;;;5039023;28;20017;-77
2023/10/12 01:10:32;;;;;;;18.83;10.73;;;18.50;93.60;;;;;;5055094;28;20017;-77
2023/10/12 01:13:00;;;;;;;24.08;11.20;;;18.50;93.90;;;;;;5055044;28;20048;-78
2023/10/12 01:15:30;;;;;;;22.55;10.77;;;18.40;94.10;;;;;;5055524;28;20049;-77
2023/10/12 01:17:56;;;;;;;22.52;10.77;;;18.40;94.30;;;;;;5039185;28;20029;-77
2023/10/12 01:20:36;;;;;;;22.25;11.50;;;18.40;94.30;;;;;;5055140;28;20060;-78
2023/10/12 01:23:03;;;;;;;21.83;11.13;;;18.40;94.20;;;;;;5055062;28;20025;-78
2023/10/12 01:25:29;;;;;;;20.65;10.70;;;18.30;94.50;;;;;;5055213;28;20029;-77
2023/10/12 01:27:55;;;;;;;23.30;11.30;;;18.30;94.80;;;;;;5073564;28;20022;-77
2023/10/12 01:30:22;;;;;;;25.48;11.73;;;18.30;94.80;;;;;;5058519;28;20107;-77
2023/10/12 01:32:57;;;;;;;18.77;11.02;;;18.30;94.80;;;;;;5058463;28;20017;-77
2023/10/12 01:35:27;;;;;;;24.85;11.38;;;18.30;95.20;;;;;;5076122;28;20029;-77
2023/10/12 01:38:00;;;;;;;24.92;11.70;;;18.20;95.10;;;;;;5058409;28;20124;-77
2023/10/12 01:40:45;;;;;;;21.83;11.90;;;18.20;95.30;;;;;;5058359;28;20025;-77
2023/10/12 01:43:14;;;;;;;25.52;11.73;;;18.20;95.50;;;;;;5075866;28;20032;-77
2023/10/12 01:45:43;;;;;;;24.83;12.52;;;18.10;96.10;;;;;;5058519;28;20040;-77
2023/10/12 01:48:12;;;;;;;25.45;11.57;;;18.10;96.10;;;;;;5042102;28;20029;-77
2023/10/12 01:50:39;;;;;;;27.17;13.05;;;18.00;96.20;;;;;;5058734;28;20029;-77
2023/10/12 01:55:59;;;;;;;22.40;11.32;;;18.00;96.50;;;;;;5076004;28;20036;-77
2023/10/12 01:58:32;;;;;;;22.70;12.43;;;18.00;96.80;;;;;;5059946;28;20088;-77
2023/10/12 02:01:07;;;;;;;25.40;12.50;;;17.90;96.80;;;;;;5075701;28;20032;-77
2023/10/12 02:03:37;;;;;;;22.50;12.10;;;17.90;96.90;;;;;;5058032;28;20029;-77
2023/10/12 02:06:13;;;;;;;30.35;12.35;;;17.90;97.50;;;;;;5075602;28;20028;-77
2023/10/12 02:08:40;;;;;;;25.58;12.48;;;17.90;97.20;;;;;;5075710;28;20017;-77
2023/10/12 02:11:12;;;;;;;27.88;13.48;;;17.90;97.20;;;;;;5075600;28;20079;-77
2023/10/12 02:13:40;;;;;;;24.85;11.65;;;17.90;97.30;;;;;;5057712;28;20025;-77
2023/10/12 02:16:07;;;;;;;22.40;12.05;;;17.90;97.10;;;;;;5057812;28;20507;-77
2023/10/12 02:18:35;;;;;;;27.55;11.60;;;17.90;97.30;;;;;;5041340;28;20029;-77
2023/10/12 02:21:09;;;;;;;18.45;12.00;;;17.90;97.30;;;;;;5058072;28;20021;-77
2023/10/12 02:23:53;;;;;;;22.17;11.57;;;17.90;97.60;;;;;;5057611;28;20033;-77
2023/10/12 02:31:45;;;;;;;28.60;14.32;;;17.80;97.80;;;;;;5075194;28;20060;-77
2023/10/12 02:34:16;;;;;;;27.17;12.57;;;17.80;97.80;;;;;;5058794;28;20025;-77
2023/10/12 02:37:00;;;;;;;28.15;13.30;;;17.80;97.70;;;;;;5057392;28;20084;-77
2023/10/12 02:39:30;;;;;;;26.60;12.77;;;17.80;97.90;;;;;;5042179;28;20040;-77
2023/10/12 02:42:12;;;;;;;26.95;13.02;;;17.90;97.80;;;;;;5057868;28;20029;-77
2023/10/12 02:44:45;;;;;;;26.30;13.02;;;17.90;97.90;;;;;;5042595;28;20045;-77
2023/10/12 02:47:22;;;;;;;;;;;17.80;98.20;;;;;;5057578;28;20031;-77
2023/10/12 02:49:48;;;;;;;25.70;12.07;;;17.80;98.20;;;;;;5057118;28;19909;-77
2023/10/12 02:52:15;;;;;;;29.55;14.63;;;17.80;98.10;;;;;;5057097;28;20088;-78
2023/10/12 02:54:50;;;;;;;30.33;14.18;;;17.80;98.10;;;;;;5040612;28;20032;-78
2023/10/12 02:57:22;;;;;;;25.65;14.90;;;17.80;98.00;;;;;;5041678;28;20096;-77
2023/10/12 02:59:57;;;;;;;35.58;14.90;;;17.90;98.10;;;;;;5074706;28;20052;-77
2023/10/12 03:02:34;;;;;;;31.85;14.70;;;17.90;98.00;;;;;;5058171;28;20051;-78
2023/10/12 03:05:06;;;;;;;28.13;13.50;;;17.80;98.00;;;;;;5057601;28;20040;-78
2023/10/12 03:07:35;;;;;;;27.70;13.77;;;17.80;98.10;;;;;;5040612;28;20059;-77
2023/10/12 03:10:06;;;;;;;26.00;13.73;;;17.70;98.30;;;;;;5056760;28;20107;-77
2023/10/12 03:12:41;;;;;;;25.48;13.93;;;17.70;98.30;;;;;;5040801;28;20021;-77
2023/10/12 03:15:14;;;;;;;32.10;15.30;;;17.80;98.30;;;;;;5056696;28;20025;-77
2023/10/12 03:18:02;;;;;;;27.88;13.82;;;17.80;98.30;;;;;;5056589;28;20039;-77
2023/10/12 03:20:29;;;;;;;27.42;13.85;;;17.80;98.20;;;;;;5059159;28;20479;-77
2023/10/12 03:22:59;;;;;;;30.90;14.23;;;17.70;98.30;;;;;;5056967;28;20458;-77
2023/10/12 03:25:43;;;;;;;26.02;14.25;;;17.70;98.40;;;;;;5040555;28;20056;-77
2023/10/12 03:33:46;;;;;;;28.15;13.82;;;17.70;98.20;;;;;;5059231;28;20036;-78
2023/10/12 03:36:36;;;;;;;28.52;15.13;;;17.70;98.10;;;;;;5056716;28;20028;-77
2023/10/12 03:39:14;;;;;;;35.85;15.85;;;17.60;98.20;;;;;;5058590;28;20036;-78
2023/10/12 03:47:04;;;;;;;30.27;14.65;;;17.50;98.60;;;;;;5063174;28;20083;-78
2023/10/12 03:51:59;;;;;;;29.85;14.63;;;17.50;98.50;;;;;;5056085;28;20024;-78
2023/10/12 03:54:29;;;;;;;28.55;14.63;;;17.50;98.60;;;;;;5056629;28;20111;-77
2023/10/12 03:59:44;;;;;;;27.08;13.25;;;17.40;98.70;;;;;;5059009;28;20071;-77
2023/10/12 04:02:15;;;;;;;26.73;14.00;;;17.50;98.70;;;;;;5039413;28;20029;-78
2023/10/12 04:04:59;;;;;;;26.27;13.80;;;17.50;98.60;;;;;;5039971;28;20036;-77
2023/10/12 04:07:39;;;;;;;23.70;12.85;;;17.50;98.50;;;;;;5058220;28;20036;-77
2023/10/12 04:10:14;;;;;;;24.88;12.85;;;17.50;98.50;;;;;;5073398;28;20093;-77
2023/10/12 04:12:53;;;;;;;26.10;12.77;;;17.50;98.50;;;;;;5055960;28;20020;-78
2023/10/12 04:15:27;;;;;;;27.67;12.82;;;17.50;98.50;;;;;;5040920;28;20071;-77
2023/10/12 04:17:59;;;;;;;23.55;12.20;;;17.50;98.90;;;;;;5040250;28;20123;-77
2023/10/12 04:20:25;;;;;;;23.55;12.70;;;17.50;98.50;;;;;;5039909;28;20036;-77
2023/10/12 04:28:09;;;;;;;19.20;11.27;;;17.40;98.80;;;;;;5056927;28;20033;-77
2023/10/12 04:30:43;;;;;;;23.88;12.65;;;17.40;98.80;;;;;;5057887;28;20032;-77
2023/10/12 04:38:22;;;;;;;25.92;12.40;;;17.30;98.80;;;;;;5056472;28;20044;-77
2023/10/12 04:43:34;;;;;;;23.00;11.27;;;17.30;98.80;;;;;;5058031;28;20084;-77
2023/10/12 04:48:41;;;;;;;20.67;10.43;;;17.20;98.90;;;;;;5073012;28;20044;-77
2023/10/12 04:51:19;;;;;;;22.58;11.65;;;17.30;98.90;;;;;;5055811;28;20041;-77
2023/10/12 04:53:57;;;;;;;22.00;10.63;;;17.30;98.70;;;;;;5072920;28;20088;-77
2023/10/12 04:56:26;;;;;;;20.70;10.98;;;17.20;99.00;;;;;;5055208;28;20041;-77
2023/10/12 04:58:59;;;;;;;19.20;10.63;;;17.20;99.10;;;;;;5039171;28;20021;-77
2023/10/12 05:01:39;;;;;;;19.50;10.73;;;17.20;99.20;;;;;;5072978;28;20035;-77
2023/10/12 05:04:26;;;;;;;20.45;10.73;;;17.20;99.10;;;;;;5058170;28;20045;-77
2023/10/12 05:09:37;;;;;;;19.80;10.63;;;17.20;99.10;;;;;;5061717;28;20032;-78
2023/10/12 05:12:03;;;;;;;20.00;10.23;;;17.20;99.00;;;;;;5042526;28;20017;-77
2023/10/12 05:14:33;;;;;;;21.55;10.88;;;17.20;99.10;;;;;;5076550;28;20086;-77
2023/10/12 05:16:59;;;;;;;21.30;10.40;;;17.20;99.30;;;;;;5059472;28;20029;-77
2023/10/12 05:19:24;;;;;;;21.52;11.40;;;17.20;99.20;;;;;;5058939;28;20039;-77
2023/10/12 05:21:50;;;;;;;21.73;10.27;;;17.20;99.20;;;;;;5058841;28;20025;-78
2023/10/12 05:24:16;;;;;;;18.40;10.98;;;17.20;99.10;;;;;;5076302;28;20041;-77
2023/10/12 05:26:51;;;;;;;22.60;12.27;;;17.30;99.10;;;;;;5058836;28;20036;-77
2023/10/12 05:32:05;;;;;;;19.48;10.15;;;17.30;99.00;;;;;;5059661;28;20025;-77
2023/10/12 05:34:34;;;;;;;20.27;10.95;;;17.30;99.10;;;;;;5044237;28;20035;-77
2023/10/12 05:37:07;;;;;;;20.40;10.82;;;17.20;99.10;;;;;;5058957;28;20029;-78
2023/10/12 05:39:36;;;;;;;22.38;11.52;;;17.30;99.20;;;;;;5043012;28;20088;-78
2023/10/12 05:42:05;;;;;;;18.35;10.75;;;17.30;99.20;;;;;;5042282;28;20033;-77
2023/10/12 05:44:31;;;;;;;20.92;11.15;;;17.30;99.20;;;;;;5058792;28;20041;-79
2023/10/12 05:47:00;;;;;;;22.73;10.52;;;17.30;99.00;;;;;;5041854;28;20047;-77
2023/10/12 05:49:26;;;;;;;22.85;10.75;;;17.30;99.20;;;;;;5042163;28;20032;-77
2023/10/12 05:51:51;;;;;;;20.45;10.80;;;17.20;99.30;;;;;;5041706;28;20100;-77
2023/10/12 05:54:20;;;;;;;19.42;10.35;;;17.20;99.50;;;;;;5075951;28;20021;-77
2023/10/12 05:56:49;;;;;;;26.50;10.40;;;17.20;99.50;;;;;;5041918;28;20029;-77
2023/10/12 05:59:15;;;;;;;22.38;10.55;;;17.20;99.70;;;;;;5058443;28;20104;-77
2023/10/12 06:01:45;;;;;;;24.90;11.27;;;17.20;99.70;;;;;;5058246;28;20033;-77
2023/10/12 06:04:14;;;;;;;23.13;10.60;;;17.20;99.80;;;;;;5057856;28;20088;-77
2023/10/12 06:06:41;;;;;;;20.40;11.00;;;17.10;99.90;;;;;;5075704;28;20041;-77
2023/10/12 06:09:12;;;;;;;22.90;11.18;;;17.10;99.90;;;;;;5057816;28;20013;-78
2023/10/12 06:11:41;;;;;;;19.88;10.82;;;17.00;99.90;;;;;;5057863;28;20391;-77
2023/10/12 06:14:08;;;;;;;20.30;10.35;;;17.10;99.90;;;;;;5056726;28;20029;-77
2023/10/12 06:16:40;;;;;;;17.88;9.55;;;17.00;99.90;;;;;;5057901;28;20057;-77
2023/10/12 06:19:07;;;;;;;24.98;10.75;;;17.00;99.90;;;;;;5057935;28;20021;-77
2023/10/12 06:21:42;;;;;;;19.52;9.98;;;17.00;99.90;;;;;;5057679;28;20033;-77
2023/10/12 06:24:21;;;;;;;22.00;10.85;;;17.00;99.90;;;;;;5075322;28;20061;-77
2023/10/12 06:26:47;;;;;;;16.23;8.85;;;17.00;99.90;;;;;;5042863;28;20116;-78
2023/10/12 06:29:24;;;;;;;23.95;10.60;;;17.00;99.90;;;;;;5057538;28;20028;-78
2023/10/12 06:31:52;;;;;;;21.42;9.80;;;17.00;99.90;;;;;;5075232;28;20017;-77
2023/10/12 06:34:20;;;;;;;18.90;10.10;;;17.00;99.90;;;;;;5074133;28;20035;-78
2023/10/12 06:36:46;;;;;;;20.35;9.57;;;17.00;99.90;;;;;;5057846;28;20029;-78
2023/10/12 06:44:27;;;;;;;18.58;9.23;;;17.00;99.90;;;;;;5057693;28;20053;-77
2023/10/12 06:46:53;;;;;;;;;;;17.00;99.90;;;;;;5074485;28;20025;-77
2023/10/12 06:49:42;;;;;;;19.73;9.00;;;17.00;99.90;;;;;;5057173;28;19908;-77
2023/10/12 06:52:13;;;;;;;18.95;8.93;;;17.00;99.90;;;;;;5074533;28;20033;-77
2023/10/12 06:54:39;;;;;;;17.23;8.73;;;17.00;99.90;;;;;;5073844;28;20387;-77
2023/10/12 07:02:27;;;;;;;19.92;8.63;;;17.00;99.90;;;;;;5074806;28;20037;-77
2023/10/12 07:05:04;;;;;;;19.63;8.70;;;17.00;99.90;;;;;;5056757;28;20028;-77
2023/10/12 07:07:40;;;;;;;18.10;8.95;;;17.00;99.90;;;;;;5056983;28;20021;-78
2023/10/12 07:12:52;;;;;;;17.08;8.63;;;17.00;99.90;;;;;;5073766;28;20041;-78
2023/10/12 07:15:23;;;;;;;18.67;8.73;;;17.10;99.90;;;;;;5056768;28;20052;-78
2023/10/12 07:17:50;;;;;;;14.82;7.93;;;17.10;99.90;;;;;;5056655;28;20274;-77
2023/10/12 07:20:43;;;;;;;17.23;8.40;;;17.00;99.90;;;;;;5074198;28;20025;-78
2023/10/12 07:23:15;;;;;;;16.35;8.18;;;17.00;99.90;;;;;;5074188;28;20403;-78
2023/10/12 07:25:43;;;;;;;16.63;8.27;;;17.10;99.90;;;;;;5056064;28;20025;-78
2023/10/12 07:28:17;;;;;;;13.75;7.60;;;17.10;99.90;;;;;;5056381;28;20049;-77
2023/10/12 07:31:13;;;;;;;16.80;8.02;;;17.20;99.90;;;;;;5073209;28;20025;-78
2023/10/12 07:33:32;;;;;;;18.50;8.60;;;17.20;99.90;;;;;;5073805;28;20025;-78
2023/10/12 07:36:17;;;;;;;16.20;8.18;;;17.10;99.90;;;;;;5039801;28;20025;-77
2023/10/12 07:39:14;;;;;;;17.70;8.65;;;17.20;99.90;;;;;;5073205;28;20025;-77
2023/10/12 07:41:41;;;;;;;19.15;8.85;;;17.20;99.90;;;;;;5073205;28;20561;-78
2023/10/12 07:44:07;;;;;;;18.13;8.27;;;17.10;99.90;;;;;;5055890;28;20049;-78
2023/10/12 07:46:35;;;;;;;15.60;8.38;;;17.20;99.90;;;;;;5056136;28;20025;-77
2023/10/12 07:49:24;;;;;;;19.30;8.75;;;17.10;99.90;;;;;;5055970;28;20032;-78
2023/10/12 07:57:16;;;;;;;16.98;8.68;;;17.10;99.90;;;;;;5072877;28;20068;-78
2023/10/12 08:08:35;;;;;;;18.48;8.10;;;17.10;99.90;;;;;;5072627;28;20057;-78
2023/10/12 08:21:24;;;;;;;14.85;7.72;;;17.00;99.90;;;;;;5073473;28;20040;-78
2023/10/12 08:30:10;;;;;;;16.33;8.50;;;17.10;99.90;;;;;;5073263;28;20029;-78
2023/10/12 08:40:07;;;;;;;15.57;8.13;;;17.10;99.90;;;;;;5077130;28;20033;-78
2023/10/12 08:44:59;;;;;;;14.60;7.85;;;17.10;99.90;;;;;;5075971;28;20071;-78
2023/10/12 08:50:05;;;;;;;18.35;8.30;;;17.10;99.90;;;;;;5077087;28;20033;-78
2023/10/12 08:52:31;;;;;;;15.05;8.18;;;17.10;99.90;;;;;;5059452;28;20040;-78
2023/10/12 08:57:56;;;;;;;15.02;7.70;;;17.20;99.90;;;;;;5076248;28;20041;-78
2023/10/12 09:03:06;;;;;;;15.82;7.43;;;17.10;99.90;;;;;;5076873;28;20040;-77
2023/10/12 09:05:35;;;;;;;15.32;8.18;;;17.10;99.90;;;;;;5059153;28;20033;-77
2023/10/12 09:13:25;;;;;;;14.40;7.97;;;17.10;99.90;;;;;;5076733;28;20043;-78
2023/10/12 09:15:54;;;;;;;17.98;8.45;;;17.10;99.90;;;;;;5076593;28;20025;-77
2023/10/12 09:18:33;;;;;;;16.05;8.27;;;17.10;99.90;;;;;;5058892;28;20024;-77
2023/10/12 09:23:33;;;;;;;16.10;8.68;;;17.10;99.90;;;;;;5075592;28;20092;-78
2023/10/12 09:36:28;;;;;;;16.67;8.75;;;17.30;99.90;;;;;;5075389;28;20025;-79
2023/10/12 09:39:00;;;;;;;18.65;8.73;;;17.30;99.90;;;;;;5058596;28;20024;-78
2023/10/12 09:41:32;;;;;;;17.05;8.75;;;17.40;99.90;;;;;;5058447;28;20039;-78
2023/10/12 09:44:00;;;;;;;17.95;9.07;;;17.40;99.90;;;;;;5075788;28;20037;-77
2023/10/12 09:46:27;;;;;;;16.27;9.27;;;17.40;99.90;;;;;;5058323;28;20025;-77
2023/10/12 09:49:06;;;;;;;19.55;10.30;;;17.40;99.90;;;;;;5057962;28;20048;-78
2023/10/12 09:51:51;;;;;;;17.05;9.18;;;17.50;99.90;;;;;;5042941;28;20116;-78
2023/10/12 09:54:32;;;;;;;19.92;10.02;;;17.50;99.90;;;;;;5075025;28;20029;-78
2023/10/12 09:57:14;;;;;;;22.83;10.57;;;17.50;99.90;;;;;;5075855;28;20076;-77
2023/10/12 09:59:51;;;;;;;22.42;9.98;;;17.60;99.90;;;;;;5058274;28;20793;-78
2023/10/12 10:02:33;;;;;;;19.27;10.18;;;17.60;99.90;;;;;;5058149;28;20095;-78
2023/10/12 10:05:51;;;;;;;20.50;10.45;;;17.60;99.90;;;;;;5058057;28;20056;-78
2023/10/12 10:08:06;;;;;;;20.77;9.73;;;17.70;99.90;;;;;;5064752;28;20077;-78
2023/10/12 10:10:34;;;;;;;19.75;9.60;;;17.70;99.90;;;;;;5057922;28;20021;-78
2023/10/12 10:13:29;;;;;;;28.23;10.07;;;17.70;99.90;;;;;;5057874;28;20093;-78
2023/10/12 10:15:55;;;;;;;20.63;10.23;;;17.70;99.90;;;;;;5075363;28;20033;-78
2023/10/12 10:18:30;;;;;;;17.25;9.82;;;17.80;99.90;;;;;;5057927;28;20021;-78
2023/10/12 10:21:04;;;;;;;23.42;9.93;;;17.80;99.90;;;;;;5057759;28;20037;-78
2023/10/12 10:23:36;;;;;;;19.58;10.25;;;17.80;99.90;;;;;;5074528;28;20032;-78
2023/10/12 10:26:23;;;;;;;19.17;10.48;;;17.80;99.90;;;;;;5058637;28;20036;-77
2023/10/12 10:29:04;;;;;;;21.77;10.98;;;17.80;99.90;;;;;;5075408;28;20021;-78
2023/10/12 10:31:34;;;;;;;18.88;10.07;;;17.80;99.90;;;;;;5042954;28;20055;-79
2023/10/12 10:34:04;;;;;;;20.38;10.60;;;17.80;99.90;;;;;;5040968;28;20112;-78
2023/10/12 10:36:34;;;;;;;18.38;10.45;;;17.80;99.90;;;;;;5075069;28;20021;-78
2023/10/12 10:39:04;;;;;;;23.42;11.48;;;17.80;99.90;;;;;;5057454;28;20476;-78
2023/10/12 10:41:46;;;;;;;27.35;12.23;;;17.80;99.90;;;;;;5057362;28;20021;-77
2023/10/12 10:44:16;;;;;;;22.10;11.60;;;17.80;99.90;;;;;;5042653;28;20120;-78
2023/10/12 10:46:46;;;;;;;25.98;12.50;;;17.80;99.90;;;;;;5057257;28;20476;-77
2023/10/12 10:49:16;;;;;;;20.17;11.88;;;17.90;99.90;;;;;;5074914;28;20009;-78
2023/10/12 10:51:48;;;;;;;23.42;12.32;;;17.90;99.90;;;;;;5074839;28;20017;-78
2023/10/12 10:54:20;;;;;;;21.75;11.85;;;17.90;99.90;;;;;;5074869;28;20017;-77
2023/10/12 10:56:51;;;;;;;23.58;11.95;;;17.90;99.90;;;;;;5057064;28;20025;-77
2023/10/12 10:59:20;;;;;;;20.33;11.88;;;18.00;99.90;;;;;;5057042;28;20013;-78
2023/10/12 11:01:50;;;;;;;28.33;12.20;;;18.00;99.90;;;;;;5056257;28;20032;-78
2023/10/12 11:07:03;;;;;;;25.55;13.45;;;18.00;99.90;;;;;;5058327;28;20036;-78
2023/10/12 11:09:48;;;;;;;26.52;13.43;;;18.00;99.90;;;;;;5056837;28;20029;-77
2023/10/12 11:12:14;;;;;;;26.00;13.10;;;18.00;99.90;;;;;;5059351;28;20017;-78
2023/10/12 11:14:52;;;;;;;23.15;11.73;;;18.00;99.90;;;;;;5056697;28;20029;-78
2023/10/12 11:17:20;;;;;;;22.25;11.90;;;18.00;99.90;;;;;;5041873;28;20049;-78
2023/10/12 11:19:49;;;;;;;21.75;11.02;;;18.00;99.90;;;;;;5056621;28;20032;-78
2023/10/12 11:22:15;;;;;;;21.30;10.98;;;18.10;99.90;;;;;;5074180;28;20040;-78
2023/10/12 11:24:49;;;;;;;23.02;11.43;;;18.10;99.90;;;;;;5056647;28;20029;-78
2023/10/12 11:27:32;;;;;;;19.85;9.35;;;18.10;99.90;;;;;;5056596;28;20092;-78
2023/10/12 11:30:42;;;;;;;20.80;11.20;;;18.10;99.90;;;;;;5056423;28;20017;-78
2023/10/12 11:32:54;;;;;;;20.05;10.77;;;18.10;99.90;;;;;;5060586;28;20029;-78
2023/10/12 11:35:43;;;;;;;20.50;10.70;;;18.00;99.90;;;;;;5056168;28;20017;-78
2023/10/12 11:38:17;;;;;;;20.50;10.88;;;18.00;99.90;;;;;;5041271;28;20039;-78
2023/10/12 11:40:44;;;;;;;21.00;11.27;;;18.00;99.90;;;;;;5073854;28;20092;-78
2023/10/12 11:43:10;;;;;;;21.73;11.20;;;18.00;99.90;;;;;;5039508;28;20063;-78
2023/10/12 11:45:36;;;;;;;21.15;10.60;;;18.10;99.90;;;;;;5039654;28;20033;-78
2023/10/12 11:48:20;;;;;;;19.58;10.95;;;18.10;99.90;;;;;;5073667;28;20048;-78
2023/10/12 11:50:48;;;;;;;20.55;10.32;;;18.00;99.90;;;;;;5056005;28;20051;-78
2023/10/12 11:53:17;;;;;;;19.80;10.25;;;18.00;99.90;;;;;;5056044;28;20024;-78
2023/10/12 11:55:49;;;;;;;20.83;12.15;;;18.00;99.90;;;;;;5039902;28;20112;-78
2023/10/12 11:58:19;;;;;;;20.75;10.82;;;18.10;99.90;;;;;;5055932;28;20047;-78
2023/10/12 12:00:48;;;;;;;22.70;11.63;;;18.10;99.90;;;;;;5039743;28;20025;-78
2023/10/12 12:03:15;;;;;;;20.25;11.82;;;18.10;99.90;;;;;;5055814;28;20096;-78
2023/10/12 12:05:50;;;;;;;21.88;11.60;;;18.10;99.90;;;;;;5055640;28;20032;-78
2023/10/12 12:08:18;;;;;;;22.10;11.80;;;18.10;99.90;;;;;;5073439;28;20087;-78
2023/10/12 12:10:45;;;;;;;21.48;11.85;;;18.20;99.90;;;;;;5055802;28;20021;-78
2023/10/12 12:13:15;;;;;;;23.40;12.25;;;18.20;99.90;;;;;;5073327;28;20021;-78
2023/10/12 12:15:44;;;;;;;21.52;12.30;;;18.20;99.90;;;;;;5055703;28;20017;-78
2023/10/12 12:18:19;;;;;;;22.27;12.23;;;18.20;99.90;;;;;;5055605;28;20024;-78
2023/10/12 12:20:49;;;;;;;19.65;11.13;;;18.20;99.90;;;;;;5057085;28;20099;-78
2023/10/12 12:23:15;;;;;;;21.17;11.85;;;18.20;99.90;;;;;;5073291;28;20081;-78
2023/10/12 12:25:42;;;;;;;24.52;11.30;;;18.20;99.90;;;;;;5073107;28;20047;-78
2023/10/12 12:28:15;;;;;;;19.80;10.18;;;18.20;99.90;;;;;;5055738;28;20017;-78
2023/10/12 12:30:55;;;;;;;19.52;10.93;;;18.10;99.90;;;;;;5055549;28;20021;-78
2023/10/12 12:33:20;;;;;;;18.58;10.20;;;18.10;99.90;;;;;;5057452;28;20029;-78
2023/10/12 12:35:59;;;;;;;18.48;10.05;;;18.20;99.90;;;;;;5055389;28;20032;-78
2023/10/12 12:40:52;;;;;;;17.60;10.13;;;18.10;99.90;;;;;;5072210;28;20033;-78
2023/10/12 12:43:18;;;;;;;19.83;10.65;;;18.20;99.90;;;;;;5072840;28;20100;-78
2023/10/12 12:45:43;;;;;;;19.40;9.80;;;18.20;99.90;;;;;;5038896;28;20025;-78
2023/10/12 12:48:09;;;;;;;15.30;8.93;;;18.20;99.70;;;;;;5072142;28;20032;-78
2023/10/12 12:50:35;;;;;;;16.33;9.48;;;18.20;99.80;;;;;;5055309;28;20474;-79
2023/10/12 12:53:00;;;;;;;18.35;8.40;;;18.30;99.60;;;;;;5073044;28;20021;-78
2023/10/12 12:55:28;;;;;;;14.45;8.07;;;18.20;99.40;;;;;;5055258;28;20025;-78
2023/10/12 12:57:58;;;;;;;15.05;7.75;;;18.20;99.40;;;;;;5072917;28;20094;-79
2023/10/12 13:00:25;;;;;;;16.95;8.10;;;18.10;99.50;;;;;;5072041;28;20029;-78
2023/10/12 13:02:50;;;;;;;15.98;8.05;;;18.10;99.60;;;;;;5038689;28;20047;-78
2023/10/12 13:05:16;;;;;;;14.45;7.75;;;18.10;99.40;;;;;;5055101;28;20037;-78
2023/10/12 13:07:45;;;;;;;15.05;7.80;;;18.10;99.50;;;;;;5071769;28;20028;-78
2023/10/12 13:10:11;;;;;;;14.77;8.10;;;18.10;99.50;;;;;;5055098;28;20017;-78
2023/10/12 13:12:41;;;;;;;18.98;9.25;;;18.10;99.50;;;;;;5055175;28;20036;-78
2023/10/12 13:15:09;;;;;;;14.23;8.80;;;18.10;99.50;;;;;;5055148;28;20044;-78
2023/10/12 13:17:38;;;;;;;16.10;8.40;;;18.10;99.50;;;;;;5055074;28;20093;-78
2023/10/12 13:20:07;;;;;;;17.35;8.30;;;18.00;99.40;;;;;;5055084;28;20037;-77
2023/10/12 13:22:33;;;;;;;14.80;8.25;;;18.00;99.60;;;;;;5055168;28;20028;-78
2023/10/12 13:24:59;;;;;;;16.20;8.23;;;18.10;99.80;;;;;;5075274;28;20029;-78
2023/10/12 13:27:27;;;;;;;13.13;7.90;;;18.00;99.80;;;;;;5076390;28;20017;-78
2023/10/12 13:30:09;;;;;;;15.10;7.30;;;18.00;99.80;;;;;;5058800;28;20468;-78
2023/10/12 13:32:36;;;;;;;17.05;7.68;;;18.00;99.90;;;;;;5058938;28;20036;-78
2023/10/12 13:35:17;;;;;;;14.32;7.78;;;18.00;99.90;;;;;;5058553;28;20052;-78
2023/10/12 13:37:47;;;;;;;14.45;8.15;;;18.00;99.70;;;;;;5075663;28;20025;-78
2023/10/12 13:40:16;;;;;;;13.55;8.10;;;18.10;99.70;;;;;;5075267;28;20028;-78
2023/10/12 13:42:45;;;;;;;16.38;8.10;;;18.10;99.90;;;;;;5058531;28;20088;-79
2023/10/12 13:45:18;;;;;;;17.42;8.88;;;18.10;99.80;;;;;;5075029;28;20063;-78
2023/10/12 13:47:47;;;;;;;14.45;8.20;;;18.20;99.70;;;;;;5058449;28;20025;-78
2023/10/12 13:50:14;;;;;;;15.32;8.57;;;18.10;99.60;;;;;;5058355;28;20092;-78
2023/10/12 13:52:41;;;;;;;13.85;8.70;;;18.20;99.40;;;;;;5058235;28;20040;-77
2023/10/12 13:55:11;;;;;;;17.08;9.00;;;18.10;99.40;;;;;;5058138;28;20064;-78
2023/10/12 13:57:39;;;;;;;17.48;9.48;;;18.20;99.30;;;;;;5075862;28;20093;-78
2023/10/12 14:00:05;;;;;;;16.15;8.77;;;18.20;99.40;;;;;;5074874;28;20021;-78
2023/10/12 14:02:31;;;;;;;16.15;8.10;;;18.20;99.30;;;;;;5058035;28;20101;-79
2023/10/12 14:04:58;;;;;;;18.00;8.55;;;18.10;99.40;;;;;;5074875;28;20029;-79
2023/10/12 14:07:24;;;;;;;17.40;8.48;;;18.10;99.50;;;;;;5041694;28;20077;-79
2023/10/12 14:09:49;;;;;;;16.70;9.20;;;18.00;99.50;;;;;;5058067;28;20025;-79
2023/10/12 14:12:16;;;;;;;17.45;9.05;;;18.00;99.60;;;;;;5058029;28;20048;-78
2023/10/12 14:14:42;;;;;;;15.50;9.05;;;18.10;99.80;;;;;;5074630;28;20037;-78
2023/10/12 14:17:08;;;;;;;17.67;9.93;;;18.10;99.90;;;;;;5074588;28;20021;-78
2023/10/12 14:19:35;;;;;;;16.10;9.80;;;18.10;99.90;;;;;;5074584;28;20021;-78
2023/10/12 14:22:03;;;;;;;18.73;10.13;;;18.10;99.80;;;;;;5058130;28;20032;-78
2023/10/12 14:24:33;;;;;;;19.58;10.27;;;18.10;99.90;;;;;;5041424;28;20055;-77
2023/10/12 14:27:00;;;;;;;14.85;9.80;;;18.10;99.90;;;;;;5041719;28;20036;-78
2023/10/12 14:29:26;;;;;;;17.88;10.05;;;18.10;99.90;;;;;;5057614;28;20052;-78
2023/10/12 14:31:52;;;;;;;14.27;9.13;;;18.10;99.90;;;;;;5057714;28;20022;-78
2023/10/12 14:34:17;;;;;;;19.02;10.85;;;18.10;99.90;;;;;;5057429;28;20112;-78
2023/10/12 14:36:44;;;;;;;18.00;10.00;;;18.10;99.90;;;;;;5056586;28;20025;-78
2023/10/12 14:39:22;;;;;;;16.80;9.90;;;18.00;99.90;;;;;;5057666;28;20018;-78
2023/10/12 14:41:48;;;;;;;16.80;10.00;;;18.00;99.90;;;;;;5057426;28;20041;-78
2023/10/12 14:44:16;;;;;;;16.77;9.88;;;18.00;99.90;;;;;;5040549;28;20069;-78
2023/10/12 14:46:44;;;;;;;18.08;10.73;;;18.00;99.90;;;;;;5074945;28;20017;-78
2023/10/12 14:49:11;;;;;;;20.30;10.18;;;18.10;99.90;;;;;;5040984;28;20024;-78
2023/10/12 14:51:37;;;;;;;17.13;10.13;;;18.10;99.90;;;;;;5057154;28;20515;-78
2023/10/12 14:54:03;;;;;;;17.45;10.48;;;18.20;99.90;;;;;;5057452;28;20021;-78
2023/10/12 14:56:30;;;;;;;19.50;10.32;;;18.20;99.90;;;;;;5057141;28;20029;-78
2023/10/12 14:58:56;;;;;;;14.50;8.95;;;18.20;99.90;;;;;;5074654;28;20096;-78
2023/10/12 15:01:27;;;;;;;18.10;9.70;;;18.10;99.90;;;;;;5040360;28;20025;-78
2023/10/12 15:03:55;;;;;;;19.33;9.82;;;18.10;99.90;;;;;;5073837;28;20049;-78
2023/10/12 15:06:20;;;;;;;15.95;9.45;;;18.10;99.90;;;;;;5056746;28;20377;-78